Mertens, Texas
Current Conditions -  °F | °C
As of 12:55 AM on Friday 28 Nov 2014 (Local Time) from KINJ Reporting Station
Haze Haze  
Wind Chill: 41°   Ceiling: Unl
Heat Index: 44°   Visibility: 3mi
Dew Point: 28°   Wind: 6mph
Humidity: 53%   Direction: 140°SE
Pressure: 30.35"   Gusts: NA
Location:  32.06°N, 96.9°W
Report Text: KINJ 280655Z AUTO 14005KT 3SM HZ CLR 07/M02 A3035 RMK AO2 T00671023
Loading
Personal Weather Stations






























Interactive Weather Map New forecast layout! Learn more

10-Day Weather Forecast

Advertisements
Track Severe Weather on mobile